sensor_id;sensor_type;location;lat;lon;timestamp;P1;durP1;ratioP1;P2;durP2;ratioP2
31596;SDS011;74162;50.912;6.918;2024-03-08T00:00:18;43.13;;;38.50;;
31596;SDS011;74162;50.912;6.918;2024-03-08T00:00:51;41.60;;;37.50;;
31596;SDS011;74162;50.912;6.918;2024-03-08T00:01:24;41.80;;;37.33;;
31596;SDS011;74162;50.912;6.918;2024-03-08T00:01:56;41.33;;;37.17;;
31596;SDS011;74162;50.912;6.918;2024-03-08T00:02:28;42.60;;;38.10;;
31596;SDS011;74162;50.912;6.918;2024-03-08T00:03:00;42.55;;;38.10;;
31596;SDS011;74162;50.912;6.918;2024-03-08T00:03:32;41.90;;;37.60;;
31596;SDS011;74162;50.912;6.918;2024-03-08T00:04:04;41.47;;;37.05;;
31596;SDS011;74162;50.912;6.918;2024-03-08T00:04:36;41.53;;;37.08;;
31596;SDS011;74162;50.912;6.918;2024-03-08T00:05:08;42.22;;;37.78;;
31596;SDS011;74162;50.912;6.918;2024-03-08T00:05:40;42.95;;;38.45;;
31596;SDS011;74162;50.912;6.918;2024-03-08T00:06:12;40.95;;;36.67;;
31596;SDS011;74162;50.912;6.918;2024-03-08T00:06:45;40.85;;;36.55;;
31596;SDS011;74162;50.912;6.918;2024-03-08T00:07:17;41.53;;;36.33;;
31596;SDS011;74162;50.912;6.918;2024-03-08T00:07:49;42.15;;;37.63;;
31596;SDS011;74162;50.912;6.918;2024-03-08T00:08:21;41.83;;;37.25;;
31596;SDS011;74162;50.912;6.918;2024-03-08T00:08:53;44.17;;;37.75;;
31596;SDS011;74162;50.912;6.918;2024-03-08T00:09:25;46.15;;;37.22;;
31596;SDS011;74162;50.912;6.918;2024-03-08T00:09:57;42.05;;;37.55;;
31596;SDS011;74162;50.912;6.918;2024-03-08T00:10:29;43.53;;;37.53;;
31596;SDS011;74162;50.912;6.918;2024-03-08T00:11:01;41.92;;;37.42;;
31596;SDS011;74162;50.912;6.918;2024-03-08T00:11:33;41.63;;;36.85;;
31596;SDS011;74162;50.912;6.918;2024-03-08T00:12:07;42.78;;;37.67;;
31596;SDS011;74162;50.912;6.918;2024-03-08T00:12:39;41.03;;;36.20;;
31596;SDS011;74162;50.912;6.918;2024-03-08T00:13:11;41.53;;;37.17;;
31596;SDS011;74162;50.912;6.918;2024-03-08T00:13:43;42.75;;;36.70;;
31596;SDS011;74162;50.912;6.918;2024-03-08T00:14:15;41.45;;;37.05;;
31596;SDS011;74162;50.912;6.918;2024-03-08T00:14:47;42.40;;;37.15;;
31596;SDS011;74162;50.912;6.918;2024-03-08T00:15:19;41.55;;;37.15;;
31596;SDS011;74162;50.912;6.918;2024-03-08T00:15:52;42.28;;;37.55;;
31596;SDS011;74162;50.912;6.918;2024-03-08T00:16:23;40.83;;;35.83;;
31596;SDS011;74162;50.912;6.918;2024-03-08T00:16:55;43.65;;;38.25;;
31596;SDS011;74162;50.912;6.918;2024-03-08T00:17:27;43.08;;;38.47;;
31596;SDS011;74162;50.912;6.918;2024-03-08T00:17:59;42.78;;;37.03;;
31596;SDS011;74162;50.912;6.918;2024-03-08T00:18:31;41.78;;;36.63;;
31596;SDS011;74162;50.912;6.918;2024-03-08T00:19:03;42.95;;;38.35;;
31596;SDS011;74162;50.912;6.918;2024-03-08T00:19:35;41.72;;;36.83;;
31596;SDS011;74162;50.912;6.918;2024-03-08T00:20:07;43.25;;;37.20;;
31596;SDS011;74162;50.912;6.918;2024-03-08T00:20:40;41.25;;;36.85;;
31596;SDS011;74162;50.912;6.918;2024-03-08T00:21:12;42.65;;;37.50;;
31596;SDS011;74162;50.912;6.918;2024-03-08T00:21:44;42.03;;;37.47;;
31596;SDS011;74162;50.912;6.918;2024-03-08T00:22:17;41.47;;;37.08;;
31596;SDS011;74162;50.912;6.918;2024-03-08T00:22:49;42.08;;;37.58;;
31596;SDS011;74162;50.912;6.918;2024-03-08T00:23:20;41.25;;;36.78;;
31596;SDS011;74162;50.912;6.918;2024-03-08T00:23:52;41.00;;;36.55;;
31596;SDS011;74162;50.912;6.918;2024-03-08T00:24:24;42.83;;;38.08;;
31596;SDS011;74162;50.912;6.918;2024-03-08T00:24:56;42.42;;;37.90;;
31596;SDS011;74162;50.912;6.918;2024-03-08T00:25:28;45.85;;;37.50;;
31596;SDS011;74162;50.912;6.918;2024-03-08T00:26:00;43.88;;;38.38;;
31596;SDS011;74162;50.912;6.918;2024-03-08T00:26:32;42.33;;;37.30;;
31596;SDS011;74162;50.912;6.918;2024-03-08T00:27:04;41.17;;;36.75;;
31596;SDS011;74162;50.912;6.918;2024-03-08T00:27:37;42.30;;;37.15;;
31596;SDS011;74162;50.912;6.918;2024-03-08T00:28:10;42.45;;;37.85;;
31596;SDS011;74162;50.912;6.918;2024-03-08T00:28:42;42.47;;;37.90;;
31596;SDS011;74162;50.912;6.918;2024-03-08T00:29:13;42.22;;;37.63;;
31596;SDS011;74162;50.912;6.918;2024-03-08T00:29:45;42.97;;;38.42;;
31596;SDS011;74162;50.912;6.918;2024-03-08T00:30:17;41.83;;;37.40;;
31596;SDS011;74162;50.912;6.918;2024-03-08T00:30:49;45.50;;;39.08;;
31596;SDS011;74162;50.912;6.918;2024-03-08T00:31:21;42.85;;;38.13;;
31596;SDS011;74162;50.912;6.918;2024-03-08T00:31:53;43.28;;;38.47;;
31596;SDS011;74162;50.912;6.918;2024-03-08T00:32:25;43.10;;;38.17;;
31596;SDS011;74162;50.912;6.918;2024-03-08T00:32:57;43.95;;;38.80;;
31596;SDS011;74162;50.912;6.918;2024-03-08T00:33:29;43.72;;;39.15;;
31596;SDS011;74162;50.912;6.918;2024-03-08T00:34:01;43.10;;;38.50;;
31596;SDS011;74162;50.912;6.918;2024-03-08T00:34:34;43.65;;;38.95;;
31596;SDS011;74162;50.912;6.918;2024-03-08T00:35:07;44.22;;;39.50;;
31596;SDS011;74162;50.912;6.918;2024-03-08T00:35:39;43.20;;;38.63;;
31596;SDS011;74162;50.912;6.918;2024-03-08T00:36:11;43.72;;;39.08;;
31596;SDS011;74162;50.912;6.918;2024-03-08T00:36:43;43.55;;;39.00;;
31596;SDS011;74162;50.912;6.918;2024-03-08T00:37:15;42.67;;;38.15;;
31596;SDS011;74162;50.912;6.918;2024-03-08T00:37:47;42.72;;;38.15;;
31596;SDS011;74162;50.912;6.918;2024-03-08T00:38:19;45.75;;;39.35;;
31596;SDS011;74162;50.912;6.918;2024-03-08T00:38:51;44.25;;;38.15;;
31596;SDS011;74162;50.912;6.918;2024-03-08T00:39:23;42.63;;;38.08;;
31596;SDS011;74162;50.912;6.918;2024-03-08T00:39:55;43.13;;;38.53;;
31596;SDS011;74162;50.912;6.918;2024-03-08T00:40:27;43.95;;;39.25;;
31596;SDS011;74162;50.912;6.918;2024-03-08T00:40:59;43.42;;;38.75;;
31596;SDS011;74162;50.912;6.918;2024-03-08T00:41:31;43.97;;;39.38;;
31596;SDS011;74162;50.912;6.918;2024-03-08T00:42:03;43.90;;;39.17;;
31596;SDS011;74162;50.912;6.918;2024-03-08T00:42:36;43.85;;;39.22;;
31596;SDS011;74162;50.912;6.918;2024-03-08T00:43:08;44.00;;;39.08;;
31596;SDS011;74162;50.912;6.918;2024-03-08T00:43:40;43.47;;;38.70;;
31596;SDS011;74162;50.912;6.918;2024-03-08T00:44:12;43.45;;;38.80;;
31596;SDS011;74162;50.912;6.918;2024-03-08T00:44:44;45.15;;;40.40;;
31596;SDS011;74162;50.912;6.918;2024-03-08T00:45:16;44.33;;;39.67;;
31596;SDS011;74162;50.912;6.918;2024-03-08T00:45:48;43.22;;;38.60;;
31596;SDS011;74162;50.912;6.918;2024-03-08T00:46:20;41.47;;;37.03;;
31596;SDS011;74162;50.912;6.918;2024-03-08T00:46:52;43.30;;;38.70;;
31596;SDS011;74162;50.912;6.918;2024-03-08T00:47:25;44.58;;;38.85;;
31596;SDS011;74162;50.912;6.918;2024-03-08T00:47:57;44.05;;;39.05;;
31596;SDS011;74162;50.912;6.918;2024-03-08T00:48:29;43.65;;;38.53;;
31596;SDS011;74162;50.912;6.918;2024-03-08T00:49:01;43.80;;;39.38;;
31596;SDS011;74162;50.912;6.918;2024-03-08T00:49:34;45.38;;;39.15;;
31596;SDS011;74162;50.912;6.918;2024-03-08T00:50:06;44.67;;;39.97;;
31596;SDS011;74162;50.912;6.918;2024-03-08T00:50:38;44.92;;;40.33;;
31596;SDS011;74162;50.912;6.918;2024-03-08T00:51:10;43.20;;;38.88;;
31596;SDS011;74162;50.912;6.918;2024-03-08T00:51:42;43.70;;;39.10;;
31596;SDS011;74162;50.912;6.918;2024-03-08T00:52:14;45.25;;;40.60;;
31596;SDS011;74162;50.912;6.918;2024-03-08T00:52:46;44.22;;;39.70;;
31596;SDS011;74162;50.912;6.918;2024-03-08T00:53:18;45.42;;;40.47;;
31596;SDS011;74162;50.912;6.918;2024-03-08T00:53:50;44.45;;;39.80;;
31596;SDS011;74162;50.912;6.918;2024-03-08T00:54:22;44.25;;;39.50;;
31596;SDS011;74162;50.912;6.918;2024-03-08T00:54:54;45.03;;;39.70;;
31596;SDS011;74162;50.912;6.918;2024-03-08T00:55:25;45.08;;;40.30;;
31596;SDS011;74162;50.912;6.918;2024-03-08T00:55:57;44.65;;;39.95;;
31596;SDS011;74162;50.912;6.918;2024-03-08T00:56:29;45.17;;;40.42;;
31596;SDS011;74162;50.912;6.918;2024-03-08T00:57:01;43.80;;;38.85;;
31596;SDS011;74162;50.912;6.918;2024-03-08T00:57:33;43.47;;;38.72;;
31596;SDS011;74162;50.912;6.918;2024-03-08T00:58:06;42.58;;;37.80;;
31596;SDS011;74162;50.912;6.918;2024-03-08T00:58:38;42.83;;;38.13;;
31596;SDS011;74162;50.912;6.918;2024-03-08T00:59:10;46.85;;;38.15;;
31596;SDS011;74162;50.912;6.918;2024-03-08T00:59:42;48.08;;;40.33;;
31596;SDS011;74162;50.912;6.918;2024-03-08T01:00:14;44.70;;;38.47;;
31596;SDS011;74162;50.912;6.918;2024-03-08T01:00:47;46.33;;;38.97;;
31596;SDS011;74162;50.912;6.918;2024-03-08T01:01:19;44.17;;;38.72;;
31596;SDS011;74162;50.912;6.918;2024-03-08T01:01:51;44.90;;;40.00;;
31596;SDS011;74162;50.912;6.918;2024-03-08T01:02:23;43.88;;;39.10;;
31596;SDS011;74162;50.912;6.918;2024-03-08T01:02:55;44.40;;;39.33;;
31596;SDS011;74162;50.912;6.918;2024-03-08T01:03:27;45.90;;;39.15;;
31596;SDS011;74162;50.912;6.918;2024-03-08T01:03:59;44.20;;;38.40;;
31596;SDS011;74162;50.912;6.918;2024-03-08T01:04:31;46.33;;;40.72;;
31596;SDS011;74162;50.912;6.918;2024-03-08T01:05:03;47.50;;;41.13;;
31596;SDS011;74162;50.912;6.918;2024-03-08T01:05:36;45.30;;;39.83;;
31596;SDS011;74162;50.912;6.918;2024-03-08T01:06:08;44.72;;;38.80;;
31596;SDS011;74162;50.912;6.918;2024-03-08T01:06:40;44.55;;;39.65;;
31596;SDS011;74162;50.912;6.918;2024-03-08T01:07:12;45.08;;;40.08;;
31596;SDS011;74162;50.912;6.918;2024-03-08T01:07:44;47.60;;;39.83;;
31596;SDS011;74162;50.912;6.918;2024-03-08T01:08:15;43.65;;;38.85;;
31596;SDS011;74162;50.912;6.918;2024-03-08T01:08:47;44.60;;;39.05;;
31596;SDS011;74162;50.912;6.918;2024-03-08T01:09:19;43.38;;;38.65;;
31596;SDS011;74162;50.912;6.918;2024-03-08T01:09:51;45.25;;;39.85;;
31596;SDS011;74162;50.912;6.918;2024-03-08T01:10:23;44.65;;;39.53;;
31596;SDS011;74162;50.912;6.918;2024-03-08T01:10:55;43.67;;;38.78;;
31596;SDS011;74162;50.912;6.918;2024-03-08T01:11:27;46.30;;;40.03;;
31596;SDS011;74162;50.912;6.918;2024-03-08T01:11:59;44.92;;;38.95;;
31596;SDS011;74162;50.912;6.918;2024-03-08T01:12:31;44.83;;;40.03;;
31596;SDS011;74162;50.912;6.918;2024-03-08T01:13:03;45.20;;;39.88;;
31596;SDS011;74162;50.912;6.918;2024-03-08T01:13:36;44.45;;;39.75;;
31596;SDS011;74162;50.912;6.918;2024-03-08T01:14:08;44.60;;;39.75;;
31596;SDS011;74162;50.912;6.918;2024-03-08T01:14:40;46.45;;;40.85;;
31596;SDS011;74162;50.912;6.918;2024-03-08T01:15:12;46.88;;;41.75;;
31596;SDS011;74162;50.912;6.918;2024-03-08T01:15:44;44.83;;;40.05;;
31596;SDS011;74162;50.912;6.918;2024-03-08T01:16:16;45.60;;;40.88;;
31596;SDS011;74162;50.912;6.918;2024-03-08T01:16:48;46.65;;;41.65;;
31596;SDS011;74162;50.912;6.918;2024-03-08T01:17:20;46.60;;;41.70;;
31596;SDS011;74162;50.912;6.918;2024-03-08T01:17:52;46.13;;;41.30;;
31596;SDS011;74162;50.912;6.918;2024-03-08T01:18:24;45.78;;;41.15;;
31596;SDS011;74162;50.912;6.918;2024-03-08T01:18:56;45.47;;;40.75;;
31596;SDS011;74162;50.912;6.918;2024-03-08T01:19:28;45.47;;;40.78;;
31596;SDS011;74162;50.912;6.918;2024-03-08T01:20:00;46.08;;;41.30;;
31596;SDS011;74162;50.912;6.918;2024-03-08T01:20:32;45.97;;;40.97;;
31596;SDS011;74162;50.912;6.918;2024-03-08T01:21:04;46.30;;;41.50;;
31596;SDS011;74162;50.912;6.918;2024-03-08T01:21:36;47.28;;;42.38;;
31596;SDS011;74162;50.912;6.918;2024-03-08T01:22:08;47.80;;;42.03;;
31596;SDS011;74162;50.912;6.918;2024-03-08T01:22:40;45.40;;;40.40;;
31596;SDS011;74162;50.912;6.918;2024-03-08T01:23:12;45.00;;;40.33;;
31596;SDS011;74162;50.912;6.918;2024-03-08T01:23:44;44.90;;;40.17;;
31596;SDS011;74162;50.912;6.918;2024-03-08T01:24:16;46.05;;;41.10;;
31596;SDS011;74162;50.912;6.918;2024-03-08T01:24:48;46.25;;;41.17;;
31596;SDS011;74162;50.912;6.918;2024-03-08T01:25:20;45.25;;;40.33;;
31596;SDS011;74162;50.912;6.918;2024-03-08T01:25:52;46.46;;;39.24;;
31596;SDS011;74162;50.912;6.918;2024-03-08T01:26:24;46.88;;;40.95;;
31596;SDS011;74162;50.912;6.918;2024-03-08T01:26:56;45.92;;;40.22;;
31596;SDS011;74162;50.912;6.918;2024-03-08T01:27:28;49.70;;;41.35;;
31596;SDS011;74162;50.912;6.918;2024-03-08T01:28:00;47.65;;;40.45;;
31596;SDS011;74162;50.912;6.918;2024-03-08T01:28:32;46.45;;;39.60;;
31596;SDS011;74162;50.912;6.918;2024-03-08T01:29:05;45.88;;;39.35;;
31596;SDS011;74162;50.912;6.918;2024-03-08T01:29:37;47.28;;;40.92;;
31596;SDS011;74162;50.912;6.918;2024-03-08T01:30:09;47.35;;;39.35;;
31596;SDS011;74162;50.912;6.918;2024-03-08T01:30:41;44.40;;;39.53;;
31596;SDS011;74162;50.912;6.918;2024-03-08T01:31:13;45.10;;;39.20;;
31596;SDS011;74162;50.912;6.918;2024-03-08T01:31:45;46.50;;;40.78;;
31596;SDS011;74162;50.912;6.918;2024-03-08T01:32:17;46.65;;;41.45;;
31596;SDS011;74162;50.912;6.918;2024-03-08T01:32:49;46.85;;;40.90;;
31596;SDS011;74162;50.912;6.918;2024-03-08T01:33:21;47.13;;;41.97;;
31596;SDS011;74162;50.912;6.918;2024-03-08T01:33:55;48.17;;;40.40;;
31596;SDS011;74162;50.912;6.918;2024-03-08T01:34:27;46.58;;;40.60;;
31596;SDS011;74162;50.912;6.918;2024-03-08T01:34:59;45.00;;;39.88;;
31596;SDS011;74162;50.912;6.918;2024-03-08T01:35:31;45.35;;;39.97;;
31596;SDS011;74162;50.912;6.918;2024-03-08T01:36:03;48.00;;;40.83;;
31596;SDS011;74162;50.912;6.918;2024-03-08T01:36:36;46.60;;;41.45;;
31596;SDS011;74162;50.912;6.918;2024-03-08T01:37:08;45.63;;;40.38;;
31596;SDS011;74162;50.912;6.918;2024-03-08T01:37:40;46.25;;;40.40;;
31596;SDS011;74162;50.912;6.918;2024-03-08T01:38:12;48.78;;;39.78;;
31596;SDS011;74162;50.912;6.918;2024-03-08T01:38:43;46.38;;;40.97;;
31596;SDS011;74162;50.912;6.918;2024-03-08T01:39:15;46.42;;;40.40;;
31596;SDS011;74162;50.912;6.918;2024-03-08T01:39:47;46.50;;;40.58;;
31596;SDS011;74162;50.912;6.918;2024-03-08T01:40:19;45.47;;;40.50;;
31596;SDS011;74162;50.912;6.918;2024-03-08T01:40:51;51.90;;;42.25;;
31596;SDS011;74162;50.912;6.918;2024-03-08T01:41:23;46.38;;;41.28;;
31596;SDS011;74162;50.912;6.918;2024-03-08T01:41:55;47.78;;;42.08;;
31596;SDS011;74162;50.912;6.918;2024-03-08T01:42:27;46.95;;;41.88;;
31596;SDS011;74162;50.912;6.918;2024-03-08T01:43:48;48.85;;;43.55;;
31596;SDS011;74162;50.912;6.918;2024-03-08T01:44:22;48.25;;;43.10;;
31596;SDS011;74162;50.912;6.918;2024-03-08T01:44:54;48.25;;;43.00;;
31596;SDS011;74162;50.912;6.918;2024-03-08T01:45:26;48.03;;;42.92;;
31596;SDS011;74162;50.912;6.918;2024-03-08T01:45:58;47.17;;;42.17;;
31596;SDS011;74162;50.912;6.918;2024-03-08T01:46:30;48.25;;;43.25;;
31596;SDS011;74162;50.912;6.918;2024-03-08T01:47:03;46.92;;;42.03;;
31596;SDS011;74162;50.912;6.918;2024-03-08T01:47:35;46.20;;;41.28;;
31596;SDS011;74162;50.912;6.918;2024-03-08T01:48:07;47.63;;;42.60;;
31596;SDS011;74162;50.912;6.918;2024-03-08T01:48:39;47.30;;;42.42;;
31596;SDS011;74162;50.912;6.918;2024-03-08T01:49:12;48.15;;;43.00;;
31596;SDS011;74162;50.912;6.918;2024-03-08T01:49:45;46.90;;;41.88;;
31596;SDS011;74162;50.912;6.918;2024-03-08T01:50:17;48.70;;;43.47;;
31596;SDS011;74162;50.912;6.918;2024-03-08T01:50:49;49.58;;;42.60;;
31596;SDS011;74162;50.912;6.918;2024-03-08T01:51:21;48.47;;;43.15;;
31596;SDS011;74162;50.912;6.918;2024-03-08T01:51:54;47.35;;;42.35;;
31596;SDS011;74162;50.912;6.918;2024-03-08T01:52:26;47.83;;;42.60;;
31596;SDS011;74162;50.912;6.918;2024-03-08T01:52:59;50.80;;;42.10;;
31596;SDS011;74162;50.912;6.918;2024-03-08T01:53:31;49.85;;;41.65;;
31596;SDS011;74162;50.912;6.918;2024-03-08T01:54:05;49.67;;;42.10;;
31596;SDS011;74162;50.912;6.918;2024-03-08T01:54:39;47.97;;;41.03;;
31596;SDS011;74162;50.912;6.918;2024-03-08T01:55:11;47.83;;;40.85;;
31596;SDS011;74162;50.912;6.918;2024-03-08T01:55:43;48.15;;;40.55;;
31596;SDS011;74162;50.912;6.918;2024-03-08T01:56:18;47.83;;;42.58;;
31596;SDS011;74162;50.912;6.918;2024-03-08T01:56:50;47.60;;;41.38;;
31596;SDS011;74162;50.912;6.918;2024-03-08T01:57:22;48.65;;;41.38;;
31596;SDS011;74162;50.912;6.918;2024-03-08T01:57:54;48.70;;;41.47;;
31596;SDS011;74162;50.912;6.918;2024-03-08T01:58:26;48.97;;;41.83;;
31596;SDS011;74162;50.912;6.918;2024-03-08T01:59:00;48.53;;;41.75;;
31596;SDS011;74162;50.912;6.918;2024-03-08T01:59:33;49.05;;;41.33;;
31596;SDS011;74162;50.912;6.918;2024-03-08T02:00:06;49.63;;;42.25;;
31596;SDS011;74162;50.912;6.918;2024-03-08T02:00:38;47.92;;;42.22;;
31596;SDS011;74162;50.912;6.918;2024-03-08T02:01:13;50.75;;;43.45;;
31596;SDS011;74162;50.912;6.918;2024-03-08T02:01:46;50.83;;;42.67;;
31596;SDS011;74162;50.912;6.918;2024-03-08T02:02:18;49.80;;;42.78;;
31596;SDS011;74162;50.912;6.918;2024-03-08T02:02:52;45.40;;;39.97;;
31596;SDS011;74162;50.912;6.918;2024-03-08T02:03:25;47.53;;;42.28;;
31596;SDS011;74162;50.912;6.918;2024-03-08T02:03:57;48.80;;;43.47;;
31596;SDS011;74162;50.912;6.918;2024-03-08T02:04:29;50.17;;;43.30;;
31596;SDS011;74162;50.912;6.918;2024-03-08T02:05:01;47.72;;;42.50;;
31596;SDS011;74162;50.912;6.918;2024-03-08T02:05:34;48.72;;;41.90;;
31596;SDS011;74162;50.912;6.918;2024-03-08T02:06:06;49.60;;;41.75;;
31596;SDS011;74162;50.912;6.918;2024-03-08T02:06:38;49.70;;;42.40;;
31596;SDS011;74162;50.912;6.918;2024-03-08T02:07:10;46.80;;;41.13;;
31596;SDS011;74162;50.912;6.918;2024-03-08T02:07:42;48.90;;;42.30;;
31596;SDS011;74162;50.912;6.918;2024-03-08T02:08:14;50.60;;;42.25;;
31596;SDS011;74162;50.912;6.918;2024-03-08T02:08:46;48.58;;;43.30;;
31596;SDS011;74162;50.912;6.918;2024-03-08T02:09:18;46.92;;;41.20;;
31596;SDS011;74162;50.912;6.918;2024-03-08T02:09:50;50.17;;;43.78;;
31596;SDS011;74162;50.912;6.918;2024-03-08T02:10:22;49.45;;;44.28;;
31596;SDS011;74162;50.912;6.918;2024-03-08T02:10:54;51.40;;;43.80;;
31596;SDS011;74162;50.912;6.918;2024-03-08T02:11:26;50.38;;;44.42;;
31596;SDS011;74162;50.912;6.918;2024-03-08T02:11:58;48.47;;;43.35;;
31596;SDS011;74162;50.912;6.918;2024-03-08T02:12:30;51.80;;;46.17;;
31596;SDS011;74162;50.912;6.918;2024-03-08T02:13:03;48.80;;;43.58;;
31596;SDS011;74162;50.912;6.918;2024-03-08T02:13:35;50.40;;;45.17;;
31596;SDS011;74162;50.912;6.918;2024-03-08T02:14:07;47.78;;;42.78;;
31596;SDS011;74162;50.912;6.918;2024-03-08T02:14:40;49.28;;;44.15;;
31596;SDS011;74162;50.912;6.918;2024-03-08T02:15:12;49.33;;;44.15;;
31596;SDS011;74162;50.912;6.918;2024-03-08T02:15:51;48.47;;;43.45;;
31596;SDS011;74162;50.912;6.918;2024-03-08T02:16:24;50.88;;;45.42;;
31596;SDS011;74162;50.912;6.918;2024-03-08T02:16:56;48.28;;;43.03;;
31596;SDS011;74162;50.912;6.918;2024-03-08T02:17:32;48.60;;;43.40;;
31596;SDS011;74162;50.912;6.918;2024-03-08T02:18:04;49.78;;;44.55;;
31596;SDS011;74162;50.912;6.918;2024-03-08T02:18:36;49.35;;;44.15;;
31596;SDS011;74162;50.912;6.918;2024-03-08T02:19:09;49.25;;;43.85;;
31596;SDS011;74162;50.912;6.918;2024-03-08T02:19:41;47.95;;;42.75;;
31596;SDS011;74162;50.912;6.918;2024-03-08T02:20:13;47.83;;;42.72;;
31596;SDS011;74162;50.912;6.918;2024-03-08T02:20:46;49.10;;;43.83;;
31596;SDS011;74162;50.912;6.918;2024-03-08T02:21:18;46.83;;;41.72;;
31596;SDS011;74162;50.912;6.918;2024-03-08T02:21:50;50.20;;;42.47;;
31596;SDS011;74162;50.912;6.918;2024-03-08T02:22:22;48.38;;;41.47;;
31596;SDS011;74162;50.912;6.918;2024-03-08T02:22:54;50.33;;;42.20;;
31596;SDS011;74162;50.912;6.918;2024-03-08T02:23:26;50.35;;;43.28;;
31596;SDS011;74162;50.912;6.918;2024-03-08T02:23:58;48.53;;;42.45;;
31596;SDS011;74162;50.912;6.918;2024-03-08T02:24:31;47.97;;;42.78;;
31596;SDS011;74162;50.912;6.918;2024-03-08T02:25:04;49.80;;;43.50;;
31596;SDS011;74162;50.912;6.918;2024-03-08T02:25:37;49.90;;;43.85;;
31596;SDS011;74162;50.912;6.918;2024-03-08T02:26:09;48.65;;;43.35;;
31596;SDS011;74162;50.912;6.918;2024-03-08T02:26:41;49.50;;;43.17;;
31596;SDS011;74162;50.912;6.918;2024-03-08T02:27:13;49.20;;;43.35;;
31596;SDS011;74162;50.912;6.918;2024-03-08T02:27:46;50.35;;;43.70;;
31596;SDS011;74162;50.912;6.918;2024-03-08T02:28:18;53.03;;;43.75;;
31596;SDS011;74162;50.912;6.918;2024-03-08T02:28:50;47.40;;;42.20;;
31596;SDS011;74162;50.912;6.918;2024-03-08T02:29:22;47.10;;;41.65;;
31596;SDS011;74162;50.912;6.918;2024-03-08T02:29:55;52.58;;;43.65;;
31596;SDS011;74162;50.912;6.918;2024-03-08T02:30:28;52.38;;;44.17;;
31596;SDS011;74162;50.912;6.918;2024-03-08T02:31:00;49.38;;;43.95;;
31596;SDS011;74162;50.912;6.918;2024-03-08T02:31:32;53.65;;;42.75;;
31596;SDS011;74162;50.912;6.918;2024-03-08T02:32:04;48.70;;;42.35;;
31596;SDS011;74162;50.912;6.918;2024-03-08T02:32:36;50.45;;;43.85;;
31596;SDS011;74162;50.912;6.918;2024-03-08T02:33:08;48.65;;;43.30;;
31596;SDS011;74162;50.912;6.918;2024-03-08T02:33:40;48.85;;;43.55;;
31596;SDS011;74162;50.912;6.918;2024-03-08T02:34:12;51.38;;;45.30;;
31596;SDS011;74162;50.912;6.918;2024-03-08T02:34:44;50.90;;;45.22;;
31596;SDS011;74162;50.912;6.918;2024-03-08T02:35:16;50.00;;;44.67;;
31596;SDS011;74162;50.912;6.918;2024-03-08T02:35:49;50.88;;;45.47;;
31596;SDS011;74162;50.912;6.918;2024-03-08T02:36:22;49.05;;;44.00;;
31596;SDS011;74162;50.912;6.918;2024-03-08T02:36:54;49.28;;;44.10;;
31596;SDS011;74162;50.912;6.918;2024-03-08T02:37:26;51.10;;;45.90;;
31596;SDS011;74162;50.912;6.918;2024-03-08T02:37:58;50.25;;;45.17;;
31596;SDS011;74162;50.912;6.918;2024-03-08T02:38:30;50.53;;;45.35;;
31596;SDS011;74162;50.912;6.918;2024-03-08T02:39:02;50.65;;;45.05;;
31596;SDS011;74162;50.912;6.918;2024-03-08T02:39:34;50.65;;;45.25;;
31596;SDS011;74162;50.912;6.918;2024-03-08T02:40:06;50.47;;;45.05;;
31596;SDS011;74162;50.912;6.918;2024-03-08T02:40:39;50.38;;;45.15;;
31596;SDS011;74162;50.912;6.918;2024-03-08T02:41:11;49.95;;;44.63;;
31596;SDS011;74162;50.912;6.918;2024-03-08T02:41:43;49.83;;;44.45;;
31596;SDS011;74162;50.912;6.918;2024-03-08T02:42:15;52.05;;;45.63;;
31596;SDS011;74162;50.912;6.918;2024-03-08T02:42:47;51.65;;;45.65;;
31596;SDS011;74162;50.912;6.918;2024-03-08T02:43:20;50.65;;;43.67;;
31596;SDS011;74162;50.912;6.918;2024-03-08T02:43:53;50.50;;;44.35;;
31596;SDS011;74162;50.912;6.918;2024-03-08T02:44:24;49.33;;;42.95;;
31596;SDS011;74162;50.912;6.918;2024-03-08T02:44:57;50.78;;;45.17;;
31596;SDS011;74162;50.912;6.918;2024-03-08T02:45:29;49.80;;;43.50;;
31596;SDS011;74162;50.912;6.918;2024-03-08T02:46:00;51.35;;;43.33;;
31596;SDS011;74162;50.912;6.918;2024-03-08T02:46:32;50.67;;;42.97;;
31596;SDS011;74162;50.912;6.918;2024-03-08T02:47:04;50.78;;;43.40;;
31596;SDS011;74162;50.912;6.918;2024-03-08T02:47:37;51.30;;;43.50;;
31596;SDS011;74162;50.912;6.918;2024-03-08T02:48:09;48.72;;;43.28;;
31596;SDS011;74162;50.912;6.918;2024-03-08T02:48:41;49.70;;;43.92;;
31596;SDS011;74162;50.912;6.918;2024-03-08T02:49:13;51.97;;;44.45;;
31596;SDS011;74162;50.912;6.918;2024-03-08T02:49:45;51.15;;;44.88;;
31596;SDS011;74162;50.912;6.918;2024-03-08T02:50:17;50.95;;;44.10;;
31596;SDS011;74162;50.912;6.918;2024-03-08T02:50:51;49.95;;;44.63;;
31596;SDS011;74162;50.912;6.918;2024-03-08T02:51:23;50.00;;;44.42;;
31596;SDS011;74162;50.912;6.918;2024-03-08T02:51:55;52.70;;;45.47;;
31596;SDS011;74162;50.912;6.918;2024-03-08T02:52:27;51.33;;;45.72;;
31596;SDS011;74162;50.912;6.918;2024-03-08T02:52:59;51.47;;;46.08;;
31596;SDS011;74162;50.912;6.918;2024-03-08T02:53:30;50.95;;;45.25;;
31596;SDS011;74162;50.912;6.918;2024-03-08T02:54:02;51.42;;;45.97;;
31596;SDS011;74162;50.912;6.918;2024-03-08T02:54:34;50.65;;;45.35;;
31596;SDS011;74162;50.912;6.918;2024-03-08T02:55:06;50.85;;;45.15;;
31596;SDS011;74162;50.912;6.918;2024-03-08T02:55:43;49.17;;;43.97;;
31596;SDS011;74162;50.912;6.918;2024-03-08T02:56:15;49.65;;;44.22;;
31596;SDS011;74162;50.912;6.918;2024-03-08T02:56:47;52.47;;;47.05;;
31596;SDS011;74162;50.912;6.918;2024-03-08T02:57:19;51.38;;;45.78;;
31596;SDS011;74162;50.912;6.918;2024-03-08T02:57:51;50.60;;;45.08;;
31596;SDS011;74162;50.912;6.918;2024-03-08T02:58:23;51.53;;;45.92;;
31596;SDS011;74162;50.912;6.918;2024-03-08T02:58:55;52.47;;;44.38;;
31596;SDS011;74162;50.912;6.918;2024-03-08T02:59:27;50.28;;;44.97;;
31596;SDS011;74162;50.912;6.918;2024-03-08T02:59:59;48.67;;;43.45;;
31596;SDS011;74162;50.912;6.918;2024-03-08T03:00:31;50.78;;;45.30;;
31596;SDS011;74162;50.912;6.918;2024-03-08T03:01:03;50.83;;;45.22;;
31596;SDS011;74162;50.912;6.918;2024-03-08T03:01:35;51.03;;;45.60;;
31596;SDS011;74162;50.912;6.918;2024-03-08T03:02:07;49.90;;;44.60;;
31596;SDS011;74162;50.912;6.918;2024-03-08T03:02:39;49.42;;;44.03;;
31596;SDS011;74162;50.912;6.918;2024-03-08T03:03:11;50.35;;;45.10;;
31596;SDS011;74162;50.912;6.918;2024-03-08T03:03:43;51.08;;;45.53;;
31596;SDS011;74162;50.912;6.918;2024-03-08T03:04:15;50.72;;;45.47;;
31596;SDS011;74162;50.912;6.918;2024-03-08T03:04:47;50.25;;;44.75;;
31596;SDS011;74162;50.912;6.918;2024-03-08T03:05:19;51.38;;;45.85;;
31596;SDS011;74162;50.912;6.918;2024-03-08T03:05:52;50.88;;;45.38;;
31596;SDS011;74162;50.912;6.918;2024-03-08T03:06:24;50.20;;;44.92;;
31596;SDS011;74162;50.912;6.918;2024-03-08T03:06:56;51.45;;;45.85;;
31596;SDS011;74162;50.912;6.918;2024-03-08T03:07:28;51.55;;;45.92;;
31596;SDS011;74162;50.912;6.918;2024-03-08T03:08:00;52.33;;;46.63;;
31596;SDS011;74162;50.912;6.918;2024-03-08T03:08:32;52.72;;;47.22;;
31596;SDS011;74162;50.912;6.918;2024-03-08T03:09:04;51.35;;;45.95;;